createdAt,value
2019-01-27T00:04:54.586Z,3.71
2019-01-27T00:09:56.631Z,3.78
2019-01-27T00:14:58.655Z,3.81
2019-01-27T00:20:00.664Z,3.86
2019-01-27T00:30:32.544Z,4.00
2019-01-27T00:35:34.552Z,3.99
2019-01-27T00:40:36.538Z,4.05
2019-01-27T00:45:38.540Z,4.01
2019-01-27T00:50:40.550Z,4.10
2019-01-27T00:55:42.866Z,4.12
2019-01-27T01:00:44.831Z,4.09
2019-01-27T01:05:46.865Z,4.11
2019-01-27T01:10:48.905Z,4.15
2019-01-27T01:15:51.202Z,4.12
2019-01-27T01:20:53.344Z,4.16
2019-01-27T01:25:55.358Z,4.18
2019-01-27T01:30:57.367Z,4.15
2019-01-27T01:35:59.439Z,4.13
2019-01-27T01:41:01.465Z,4.17
2019-01-27T01:46:44.271Z,4.21
2019-01-27T01:51:46.298Z,4.23
2019-01-27T01:56:48.339Z,4.23
2019-01-27T02:01:50.344Z,4.22
2019-01-27T02:06:52.674Z,4.18
2019-01-27T02:11:54.677Z,4.19
2019-01-27T02:16:56.699Z,4.15
2019-01-27T02:21:58.746Z,4.15
2019-01-27T02:27:00.781Z,4.16
2019-01-27T02:37:32.756Z,4.27
2019-01-27T02:42:34.712Z,4.24
2019-01-27T02:47:36.686Z,4.32
2019-01-27T02:52:38.927Z,4.29
2019-01-27T02:57:41.549Z,4.31
2019-01-27T03:02:43.538Z,4.31
2019-01-27T03:07:45.623Z,4.33
2019-01-27T03:12:47.613Z,4.29
2019-01-27T03:17:49.579Z,4.30
2019-01-27T03:22:51.848Z,4.28
2019-01-27T03:27:54.133Z,4.30
2019-01-27T03:32:56.122Z,4.32
2019-01-27T03:37:58.106Z,4.35
2019-01-27T03:43:00.093Z,4.31
2019-01-27T03:48:02.125Z,4.35
2019-01-27T03:53:04.214Z,4.37
2019-01-27T03:58:06.232Z,4.27
2019-01-27T04:03:08.314Z,4.30
2019-01-27T04:08:10.373Z,4.33
2019-01-27T04:13:12.771Z,4.30
2019-01-27T04:18:14.809Z,4.31
2019-01-27T04:23:16.911Z,4.33
2019-01-27T04:28:18.924Z,4.28
2019-01-27T04:33:20.951Z,4.29
2019-01-27T04:38:23.251Z,4.27
2019-01-27T04:43:25.387Z,4.29
2019-01-27T04:48:27.452Z,4.29
2019-01-27T04:53:29.722Z,4.25
2019-01-27T04:58:31.797Z,4.22
2019-01-27T05:03:53.438Z,4.18
2019-01-27T05:08:55.524Z,4.20
2019-01-27T05:13:57.547Z,4.19
2019-01-27T05:18:59.599Z,4.21
2019-01-27T05:24:01.671Z,4.19
2019-01-27T05:29:03.640Z,4.24
2019-01-27T05:34:06.039Z,4.25
2019-01-27T05:39:08.365Z,4.26
2019-01-27T05:44:10.389Z,4.24
2019-01-27T05:49:12.398Z,4.27
2019-01-27T05:54:14.397Z,4.30
2019-01-27T05:59:16.362Z,4.33
2019-01-27T06:04:18.356Z,4.35
2019-01-27T06:09:20.414Z,4.35
2019-01-27T06:14:22.422Z,4.38
2019-01-27T06:19:24.455Z,4.37
2019-01-27T06:24:26.456Z,4.39
2019-01-27T06:29:28.533Z,4.43
2019-01-27T06:34:30.557Z,4.39
2019-01-27T06:39:32.953Z,4.41
2019-01-27T06:44:34.949Z,4.42
2019-01-27T06:49:37.030Z,4.40
2019-01-27T06:54:39.007Z,4.45
2019-01-27T07:00:00.603Z,4.48
2019-01-27T07:05:24.155Z,4.48
2019-01-27T07:10:43.915Z,4.49
2019-01-27T07:15:57.279Z,4.52
2019-01-27T07:21:12.175Z,4.49
2019-01-27T07:26:26.066Z,4.58
2019-01-27T07:32:00.619Z,4.61
2019-01-27T07:37:20.566Z,4.63
2019-01-27T07:42:57.006Z,4.73
2019-01-27T07:48:18.661Z,4.75
2019-01-27T07:53:43.062Z,4.78
2019-01-27T07:58:58.266Z,4.72
2019-01-27T08:04:18.276Z,4.79
2019-01-27T08:09:29.729Z,4.81
2019-01-27T08:14:56.527Z,4.90
2019-01-27T08:20:36.121Z,4.97
2019-01-27T08:25:46.205Z,4.92
2019-01-27T08:31:02.735Z,4.98
2019-01-27T08:36:20.853Z,4.97
2019-01-27T08:41:48.885Z,5.00
2019-01-27T08:46:54.217Z,5.10
2019-01-27T08:51:56.211Z,5.11
2019-01-27T08:56:58.433Z,5.15
2019-01-27T09:02:18.864Z,5.27
2019-01-27T09:07:49.247Z,5.34
2019-01-27T09:13:12.042Z,5.41
2019-01-27T09:18:45.596Z,5.45
2019-01-27T09:23:55.980Z,5.48
2019-01-27T09:29:03.363Z,5.53
2019-01-27T09:34:24.669Z,5.53
2019-01-27T09:39:54.925Z,5.54
2019-01-27T09:45:18.813Z,5.52
2019-01-27T09:50:46.375Z,5.55
2019-01-27T09:56:07.996Z,5.64
2019-01-27T10:01:27.871Z,5.61
2019-01-27T10:06:52.240Z,5.65
2019-01-27T10:12:05.417Z,5.87
2019-01-27T10:17:32.903Z,5.76
2019-01-27T10:22:53.202Z,5.81
2019-01-27T10:28:21.798Z,5.85
2019-01-27T10:33:42.051Z,5.89
2019-01-27T10:39:18.868Z,5.86
2019-01-27T10:44:47.655Z,5.93
2019-01-27T10:50:18.565Z,6.03
2019-01-27T10:55:44.138Z,6.05
2019-01-27T11:01:05.871Z,6.03
2019-01-27T11:06:46.870Z,5.98
2019-01-27T11:12:08.646Z,5.73
2019-01-27T11:17:19.050Z,5.62
2019-01-27T11:22:43.777Z,5.52
2019-01-27T11:28:14.471Z,5.59
2019-01-27T11:33:37.930Z,5.60
2019-01-27T11:39:15.314Z,5.59
2019-01-27T11:44:48.599Z,5.70
2019-01-27T11:50:10.519Z,5.85
2019-01-27T11:55:12.664Z,5.96
2019-01-27T12:00:17.215Z,5.92
2019-01-27T12:05:19.243Z,5.87
2019-01-27T12:10:21.312Z,6.06
2019-01-27T12:15:23.429Z,6.11
2019-01-27T12:20:25.463Z,6.08
2019-01-27T12:25:27.543Z,6.03
2019-01-27T12:30:29.585Z,6.10
2019-01-27T12:35:31.714Z,6.09
2019-01-27T12:40:33.913Z,6.08
2019-01-27T12:45:35.982Z,6.06
2019-01-27T12:50:38.055Z,5.95
2019-01-27T12:55:40.356Z,5.89
2019-01-27T13:00:51.498Z,5.80
2019-01-27T13:05:53.548Z,5.77
2019-01-27T13:10:55.600Z,5.76
2019-01-27T13:15:57.696Z,5.74
2019-01-27T13:20:59.792Z,5.71
2019-01-27T13:26:01.811Z,5.63
2019-01-27T13:31:04.160Z,5.60
2019-01-27T13:36:06.187Z,5.53
2019-01-27T13:41:08.194Z,5.48
2019-01-27T13:46:10.198Z,5.51
2019-01-27T13:51:12.236Z,5.47
2019-01-27T13:56:14.252Z,5.49
2019-01-27T14:01:16.400Z,5.49
2019-01-27T14:06:18.486Z,5.47
2019-01-27T14:11:20.579Z,5.58
2019-01-27T14:16:22.627Z,5.45
2019-01-27T14:21:25.559Z,5.57
2019-01-27T14:26:27.564Z,5.55
2019-01-27T14:31:29.614Z,5.56
2019-01-27T14:36:31.707Z,5.54
2019-01-27T14:41:33.734Z,5.61
2019-01-27T14:46:35.869Z,5.58
2019-01-27T14:51:37.894Z,5.64
2019-01-27T14:56:39.913Z,5.62
2019-01-27T15:01:41.982Z,5.67
2019-01-27T15:06:44.094Z,5.68
2019-01-27T15:11:46.103Z,5.68
2019-01-27T15:16:48.203Z,5.78
2019-01-27T15:21:50.171Z,5.76
2019-01-27T15:26:52.233Z,5.78
2019-01-27T15:31:54.293Z,5.91
2019-01-27T15:36:56.339Z,5.84
2019-01-27T15:41:58.325Z,5.85
2019-01-27T15:47:00.556Z,5.85
2019-01-27T15:52:02.711Z,5.87
2019-01-27T15:57:04.773Z,5.91
2019-01-27T16:02:06.811Z,5.90
2019-01-27T16:07:08.803Z,5.85
2019-01-27T16:12:10.845Z,5.76
2019-01-27T16:17:12.831Z,5.66
2019-01-27T16:22:14.874Z,5.58
2019-01-27T16:27:16.878Z,5.50
2019-01-27T16:32:28.183Z,5.48
2019-01-27T16:37:30.327Z,5.47
2019-01-27T16:42:32.683Z,5.47
2019-01-27T16:47:34.729Z,5.45
2019-01-27T16:52:36.672Z,5.51
2019-01-27T16:57:38.707Z,5.60
2019-01-27T17:02:41.051Z,5.60
2019-01-27T17:07:43.208Z,5.59
2019-01-27T17:12:45.238Z,5.56
2019-01-27T17:17:47.267Z,5.57
2019-01-27T17:22:49.434Z,5.58
2019-01-27T17:27:51.737Z,5.67
2019-01-27T17:32:53.888Z,5.89
2019-01-27T17:37:55.862Z,5.91
2019-01-27T17:42:57.891Z,6.07
2019-01-27T17:54:04.217Z,5.77
2019-01-27T17:59:11.688Z,5.85
2019-01-27T18:04:31.804Z,5.61
2019-01-27T18:09:59.144Z,5.60
2019-01-27T18:15:01.305Z,5.45
2019-01-27T18:20:06.084Z,5.41
2019-01-27T18:25:09.628Z,5.41
2019-01-27T18:30:15.514Z,5.35
2019-01-27T18:35:18.236Z,5.39
2019-01-27T18:40:20.511Z,5.26
2019-01-27T18:45:22.732Z,5.19
2019-01-27T18:50:24.950Z,5.18
2019-01-27T18:55:38.064Z,5.11
2019-01-27T19:00:48.165Z,5.09
2019-01-27T19:06:15.905Z,4.96
2019-01-27T19:11:27.805Z,4.74
2019-01-27T19:16:45.219Z,4.64
2019-01-27T19:22:05.924Z,4.45
2019-01-27T19:27:25.928Z,4.31
2019-01-27T19:32:47.935Z,4.24
2019-01-27T19:38:09.752Z,4.22
2019-01-27T19:43:40.468Z,4.16
2019-01-27T19:49:00.965Z,4.20
2019-01-27T19:54:23.785Z,4.15
2019-01-27T19:59:44.120Z,4.17
2019-01-27T20:05:00.097Z,4.18
2019-01-27T20:10:28.286Z,4.15
2019-01-27T20:15:51.182Z,4.10
2019-01-27T20:21:02.713Z,3.92
2019-01-27T20:26:34.081Z,3.88
2019-01-27T20:31:58.901Z,3.86
2019-01-27T20:37:21.160Z,3.90
2019-01-27T20:42:41.667Z,3.79
2019-01-27T20:47:58.082Z,3.63
2019-01-27T20:53:22.944Z,3.51
2019-01-27T20:58:59.906Z,3.35
2019-01-27T21:04:08.654Z,3.21
2019-01-27T21:09:31.526Z,3.07
2019-01-27T21:14:46.869Z,3.03
2019-01-27T21:19:52.864Z,2.98
2019-01-27T21:24:55.064Z,3.04
2019-01-27T21:29:57.548Z,3.07
2019-01-27T21:34:59.726Z,3.11
2019-01-27T21:40:01.994Z,3.17
2019-01-27T21:45:05.424Z,3.19
2019-01-27T21:50:10.681Z,3.14
2019-01-27T21:55:12.876Z,3.17
2019-01-27T22:00:20.169Z,3.21
2019-01-27T22:05:22.351Z,3.10
2019-01-27T22:10:24.555Z,3.06
2019-01-27T22:15:26.762Z,3.02
2019-01-27T22:20:29.022Z,2.95
2019-01-27T22:25:31.186Z,2.94
2019-01-27T22:30:33.378Z,3.00
2019-01-27T22:35:35.637Z,2.93
2019-01-27T22:40:37.875Z,2.74
2019-01-27T22:45:40.264Z,2.76
2019-01-27T22:50:42.415Z,2.65
2019-01-27T22:55:44.799Z,2.56
2019-01-27T23:01:00.907Z,2.51
2019-01-27T23:06:03.603Z,2.57
2019-01-27T23:11:05.808Z,2.56
2019-01-27T23:16:08.092Z,2.48
2019-01-27T23:21:10.251Z,2.50
2019-01-27T23:26:12.379Z,2.49
2019-01-27T23:31:14.858Z,2.53
2019-01-27T23:36:17.039Z,2.53
2019-01-27T23:41:19.280Z,2.51
2019-01-27T23:52:51.232Z,2.59
2019-01-27T23:57:53.470Z,2.55
